createdAt,value
2022-11-25T00:01:33.552Z,100010.91
2022-11-25T00:06:35.321Z,100011.25
2022-11-25T00:11:34.060Z,100012.25
2022-11-25T00:16:30.482Z,100007.28
2022-11-25T00:21:29.702Z,99994.63
2022-11-25T00:26:27.633Z,99976.41
2022-11-25T00:31:27.739Z,99978.00
2022-11-25T00:36:27.716Z,99974.63
2022-11-25T00:41:44.235Z,99979.88
2022-11-25T00:46:40.986Z,99971.38
2022-11-25T00:51:37.533Z,99974.88
2022-11-25T00:56:33.959Z,99969.69
2022-11-25T01:01:30.526Z,99978.16
2022-11-25T01:06:27.053Z,99970.88
2022-11-25T01:11:24.165Z,99966.56
2022-11-25T01:16:21.194Z,99962.72
2022-11-25T01:21:23.947Z,99951.69
2022-11-25T01:26:23.151Z,99957.63
2022-11-25T01:31:21.968Z,99954.13
2022-11-25T01:36:18.579Z,99947.59
2022-11-25T01:41:15.355Z,99963.03
2022-11-25T01:46:24.254Z,99945.09
2022-11-25T01:51:44.114Z,99958.78
2022-11-25T01:57:06.235Z,99948.19
2022-11-25T02:02:02.731Z,99945.94
2022-11-25T02:07:07.948Z,99929.41
2022-11-25T02:12:04.559Z,99925.78
2022-11-25T02:17:02.622Z,99926.94
2022-11-25T02:22:04.574Z,99922.13
2022-11-25T02:27:01.112Z,99918.25
2022-11-25T02:31:57.604Z,99919.66
2022-11-25T02:36:54.539Z,99919.19
2022-11-25T02:41:56.519Z,99904.88
2022-11-25T02:46:52.851Z,99903.66
2022-11-25T02:51:49.166Z,99907.97
2022-11-25T02:56:45.526Z,99908.81
2022-11-25T03:01:41.899Z,99896.00
2022-11-25T03:06:38.271Z,99900.34
2022-11-25T03:12:03.697Z,99888.03
2022-11-25T03:17:00.096Z,99881.25
2022-11-25T03:21:56.510Z,99888.69
2022-11-25T03:26:52.907Z,99887.56
2022-11-25T03:31:49.295Z,99889.16
2022-11-25T03:36:45.731Z,99872.41
2022-11-25T03:41:42.218Z,99885.59
2022-11-25T03:46:38.557Z,99875.19
2022-11-25T03:51:34.919Z,99875.84
2022-11-25T03:56:31.330Z,99864.03
2022-11-25T04:01:27.683Z,99869.78
2022-11-25T04:06:24.107Z,99851.03
2022-11-25T04:11:20.772Z,99859.47
2022-11-25T04:16:26.058Z,99858.03
2022-11-25T04:21:22.459Z,99863.00
2022-11-25T04:26:18.839Z,99870.41
2022-11-25T04:31:15.454Z,99873.50
2022-11-25T04:36:11.806Z,99869.41
2022-11-25T04:41:08.303Z,99869.31
2022-11-25T04:46:20.469Z,99877.78
2022-11-25T04:51:17.189Z,99885.81
2022-11-25T04:56:18.647Z,99891.63
2022-11-25T05:01:15.009Z,99897.53
2022-11-25T05:06:11.408Z,99895.97
2022-11-25T05:11:07.780Z,99902.72
2022-11-25T05:16:04.463Z,99896.38
2022-11-25T05:21:02.359Z,99903.16
2022-11-25T05:26:03.036Z,99903.06
2022-11-25T05:30:59.816Z,99907.22
2022-11-25T05:35:58.497Z,99899.59
2022-11-25T05:41:00.115Z,99908.66
2022-11-25T05:45:56.568Z,99909.09
2022-11-25T05:50:52.980Z,99901.28
2022-11-25T05:56:01.197Z,99909.94
2022-11-25T06:00:58.445Z,99909.94
2022-11-25T06:05:59.538Z,99911.66
2022-11-25T06:10:56.086Z,99914.41
2022-11-25T06:15:52.654Z,99930.78
2022-11-25T06:20:59.313Z,99928.38
2022-11-25T06:26:02.138Z,99926.44
2022-11-25T06:31:04.905Z,99934.72
2022-11-25T06:36:06.613Z,99943.56
2022-11-25T06:41:04.798Z,99938.53
2022-11-25T06:46:03.820Z,99943.28
2022-11-25T06:51:02.349Z,99947.19
2022-11-25T06:56:21.723Z,99948.28
2022-11-25T07:01:20.697Z,99962.34
2022-11-25T07:06:19.284Z,99968.44
2022-11-25T07:11:21.413Z,99966.47
2022-11-25T07:16:17.826Z,99969.00
2022-11-25T07:21:16.642Z,99978.72
2022-11-25T07:26:15.709Z,99988.22
2022-11-25T07:31:27.601Z,99998.16
2022-11-25T07:36:26.740Z,99997.13
2022-11-25T07:41:27.146Z,100008.66
2022-11-25T07:46:27.443Z,100025.25
2022-11-25T07:51:27.477Z,100030.53
2022-11-25T07:56:24.468Z,100034.88
2022-11-25T08:01:21.481Z,100033.09
2022-11-25T08:06:21.451Z,100039.22
2022-11-25T08:11:21.546Z,100039.00
2022-11-25T08:16:20.109Z,100064.38
2022-11-25T08:21:16.776Z,100065.88
2022-11-25T08:26:19.668Z,100066.31
2022-11-25T08:31:22.752Z,100068.63
2022-11-25T08:36:19.908Z,100080.69
2022-11-25T08:41:23.572Z,100092.03
2022-11-25T08:46:22.926Z,100096.03
2022-11-25T08:51:26.232Z,100088.31
2022-11-25T08:56:26.271Z,100090.50
2022-11-25T09:01:24.102Z,100101.53
2022-11-25T09:06:21.103Z,100102.78
2022-11-25T09:11:18.240Z,100103.75
2022-11-25T09:16:15.250Z,100112.22
2022-11-25T09:21:15.052Z,100118.47
2022-11-25T09:26:32.908Z,100125.06
2022-11-25T09:31:29.469Z,100131.06
2022-11-25T09:36:26.257Z,100138.69
2022-11-25T09:41:58.661Z,100142.59
2022-11-25T09:47:02.164Z,100141.22
2022-11-25T09:52:27.211Z,100142.88
2022-11-25T09:57:27.201Z,100146.22
2022-11-25T10:02:35.328Z,100153.75
2022-11-25T10:07:48.359Z,100148.84
2022-11-25T10:12:46.680Z,100162.63
2022-11-25T10:17:53.262Z,100157.38
2022-11-25T10:22:59.656Z,100169.25
2022-11-25T10:28:19.280Z,100166.38
2022-11-25T10:33:27.275Z,100163.47
2022-11-25T10:38:37.027Z,100163.47
2022-11-25T10:43:34.292Z,100167.53
2022-11-25T10:48:58.751Z,100176.13
2022-11-25T10:54:27.806Z,100174.91
2022-11-25T10:59:31.777Z,100179.50
2022-11-25T11:04:28.515Z,100176.38
2022-11-25T11:09:34.153Z,100183.41
2022-11-25T11:14:30.555Z,100180.75
2022-11-25T11:19:29.514Z,100178.13
2022-11-25T11:24:35.519Z,100177.41
2022-11-25T11:29:32.811Z,100182.72
2022-11-25T11:35:10.917Z,100200.88
2022-11-25T11:40:30.850Z,100209.03
2022-11-25T11:46:12.004Z,100223.00
2022-11-25T11:51:23.618Z,100220.09
2022-11-25T11:56:35.911Z,100224.34
2022-11-25T12:01:41.055Z,100222.31
2022-11-25T12:06:40.194Z,100231.75
2022-11-25T12:11:43.053Z,100237.91
2022-11-25T12:16:50.592Z,100238.34
2022-11-25T12:21:57.994Z,100244.75
2022-11-25T12:27:00.637Z,100255.16
2022-11-25T12:32:22.522Z,100250.25
2022-11-25T12:37:31.793Z,100252.56
2022-11-25T12:42:31.054Z,100254.03
2022-11-25T12:47:28.040Z,100263.09
2022-11-25T12:52:46.260Z,100279.25
2022-11-25T12:57:49.746Z,100286.28
2022-11-25T13:03:20.101Z,100287.84
2022-11-25T13:08:43.768Z,100298.09
2022-11-25T13:13:53.304Z,100299.44
2022-11-25T13:18:50.580Z,100302.66
2022-11-25T13:23:58.856Z,100313.06
2022-11-25T13:28:59.368Z,100320.06
2022-11-25T13:34:32.302Z,100326.63
2022-11-25T13:39:36.137Z,100332.75
2022-11-25T13:44:53.294Z,100335.94
2022-11-25T13:49:49.637Z,100352.81
2022-11-25T13:54:53.582Z,100347.31
2022-11-25T13:59:54.294Z,100356.00
2022-11-25T14:05:02.545Z,100373.28
2022-11-25T14:10:29.050Z,100378.94
2022-11-25T14:15:44.734Z,100380.59
2022-11-25T14:21:05.787Z,100387.88
2022-11-25T14:26:26.771Z,100375.94
2022-11-25T14:31:37.370Z,100393.78
2022-11-25T14:36:39.018Z,100395.56
2022-11-25T14:41:44.776Z,100402.06
2022-11-25T14:47:03.317Z,100404.72
2022-11-25T14:52:00.088Z,100418.13
2022-11-25T14:56:56.493Z,100423.19
2022-11-25T15:01:55.034Z,100427.84
2022-11-25T15:07:02.351Z,100430.75
2022-11-25T15:12:05.223Z,100442.22
2022-11-25T15:17:07.932Z,100445.22
2022-11-25T15:22:22.376Z,100450.75
2022-11-25T15:27:28.085Z,100451.94
2022-11-25T15:32:30.996Z,100451.84
2022-11-25T15:37:28.579Z,100454.25
2022-11-25T15:42:28.334Z,100459.47
2022-11-25T15:47:32.092Z,100466.69
2022-11-25T15:52:35.417Z,100476.41
2022-11-25T15:57:34.961Z,100487.47
2022-11-25T16:02:43.306Z,100485.88
2022-11-25T16:07:52.539Z,100491.19
2022-11-25T16:13:23.291Z,100508.28
2022-11-25T16:18:39.743Z,100508.81
2022-11-25T16:23:39.443Z,100522.63
2022-11-25T16:28:35.864Z,100517.50
2022-11-25T16:33:32.219Z,100523.34
2022-11-25T16:38:28.758Z,100540.28
2022-11-25T16:43:27.841Z,100544.31
2022-11-25T16:48:24.621Z,100557.72
2022-11-25T16:53:20.993Z,100556.75
2022-11-25T16:58:24.029Z,100572.16
2022-11-25T17:03:21.936Z,100576.19
2022-11-25T17:08:19.170Z,100577.78
2022-11-25T17:13:23.102Z,100586.03
2022-11-25T17:18:19.646Z,100597.63
2022-11-25T17:23:17.224Z,100604.84
2022-11-25T17:28:16.727Z,100610.28
2022-11-25T17:33:15.907Z,100613.22
2022-11-25T17:38:16.478Z,100614.25
2022-11-25T17:43:19.026Z,100629.34
2022-11-25T17:48:17.187Z,100642.34
2022-11-25T17:53:13.562Z,100654.34
2022-11-25T17:58:11.697Z,100666.91
2022-11-25T18:03:13.115Z,100671.00
2022-11-25T18:08:09.546Z,100677.22
2022-11-25T18:13:06.336Z,100687.97
2022-11-25T18:18:05.829Z,100685.97
2022-11-25T18:23:02.380Z,100698.41
2022-11-25T18:28:00.363Z,100700.88
2022-11-25T18:32:57.367Z,100713.47
2022-11-25T18:37:54.296Z,100716.97
2022-11-25T18:42:54.534Z,100725.09
2022-11-25T18:47:50.959Z,100726.59
2022-11-25T18:52:48.203Z,100732.56
2022-11-25T18:57:48.054Z,100746.47
2022-11-25T19:02:44.527Z,100750.47
2022-11-25T19:07:40.977Z,100757.84
2022-11-25T19:12:37.737Z,100760.69
2022-11-25T19:17:34.441Z,100772.25
2022-11-25T19:22:31.192Z,100774.13
2022-11-25T19:27:36.459Z,100782.09
2022-11-25T19:32:33.880Z,100794.19
2022-11-25T19:37:30.738Z,100801.63
2022-11-25T19:42:28.301Z,100810.69
2022-11-25T19:47:26.391Z,100821.47
2022-11-25T19:52:33.090Z,100835.50
2022-11-25T19:57:29.435Z,100835.13
2022-11-25T20:02:26.492Z,100849.50
2022-11-25T20:07:23.255Z,100860.50
2022-11-25T20:12:30.495Z,100865.41
2022-11-25T20:17:32.867Z,100882.44
2022-11-25T20:22:32.916Z,100887.81
2022-11-25T20:27:30.000Z,100904.31
2022-11-25T20:32:33.953Z,100902.03
2022-11-25T20:37:40.310Z,100909.41
2022-11-25T20:42:36.889Z,100922.00
2022-11-25T20:47:33.341Z,100930.88
2022-11-25T20:52:31.217Z,100927.47
2022-11-25T20:57:27.845Z,100944.13
2022-11-25T21:02:24.380Z,100954.38
2022-11-25T21:07:20.897Z,100952.81
2022-11-25T21:12:19.445Z,100958.78
2022-11-25T21:17:16.380Z,100973.63
2022-11-25T21:22:15.756Z,100969.38
2022-11-25T21:27:15.029Z,100980.38
2022-11-25T21:32:20.669Z,100992.94
2022-11-25T21:37:23.716Z,100994.84
2022-11-25T21:42:21.340Z,101000.38
2022-11-25T21:47:19.228Z,101001.22
2022-11-25T21:52:16.267Z,101008.91
2022-11-25T21:57:26.011Z,101005.31
2022-11-25T22:02:24.342Z,101012.91
2022-11-25T22:07:21.370Z,101011.66
2022-11-25T22:12:29.397Z,101015.25
2022-11-25T22:17:26.109Z,101030.22
2022-11-25T22:22:23.904Z,101035.78
2022-11-25T22:27:24.121Z,101051.78
2022-11-25T22:32:20.560Z,101057.34
2022-11-25T22:37:22.431Z,101060.66
2022-11-25T22:42:30.787Z,101073.50
2022-11-25T22:47:30.153Z,101072.88
2022-11-25T22:52:30.163Z,101080.09
2022-11-25T22:57:26.536Z,101085.38
2022-11-25T23:02:29.673Z,101094.31
2022-11-25T23:07:26.421Z,101095.19
2022-11-25T23:12:22.934Z,101110.50
2022-11-25T23:17:22.455Z,101114.16
2022-11-25T23:22:19.586Z,101114.41
2022-11-25T23:27:16.153Z,101117.16
2022-11-25T23:32:18.503Z,101134.81
2022-11-25T23:37:15.112Z,101137.78
2022-11-25T23:42:18.991Z,101142.50
2022-11-25T23:47:19.568Z,101144.47
2022-11-25T23:52:25.245Z,101159.78
2022-11-25T23:57:27.629Z,101167.13
